Jaffrey, NH

12:25 AM EST on February 24, 2017 (GMT -0500)
Jaffrey Airport-Silver Ranch

Weather History for KAFN - March, 2013

Change the Weather History Date:

Thursday, March 7, 2013

  Actual Average Record
Temperature  
Mean Temperature 28 °F -  
Max Temperature 30 °F 34 °F 54 °F (2012)
Min Temperature 26 °F 17 °F -11 °F (2003)
Degree Days  
Heating Degree Days 37    
Moisture  
Dew Point 26 °F    
Average Humidity 91    
Maximum Humidity 100    
Minimum Humidity 79    
Precipitation  
Precipitation 0.30 in - - ()
Sea Level Pressure  
Sea Level Pressure 30.05 in    
Wind  
Wind Speed 7 mph (NNE)    
Max Wind Speed 14 mph    
Max Gust Speed 25 mph    
Visibility 2 miles    
Events Fog , Rain , Snow    
Averages and records for this station are not official NWS values.
T = Trace of Precipitation, MM = Missing Value Source: NWS Daily Summary

Daily Weather History Graph

Daily Weather History Graph

Search for Another Location

Airport or City:

Trip Planner

Search our weather history database for the weather conditions in past years. The results will help you decide how hot, cold, wet, or windy it might be!

Date:

Astronomy

Mar. 07, 2013 Rise Set
Actual Time 6:13 AM EST 5:45 PM EST
Civil Twilight 5:45 AM EST 6:13 PM EST
Nautical Twilight 5:12 AM EST 6:46 PM EST
Astronomical Twilight 4:39 AM EST 7:19 PM EST
Moon 3:16 AM EST (3/7) 1:24 PM EST (3/7)
Length of Visible Light 12h 28m
Length of Day
11h 31m
Waning Crescent, 20% of the Moon is Illuminated
Mar 7
Waning Crescent
Mar 11
New
Mar 19
First Quarter
Mar 27
Full
Apr 3
Last Quarter

Hourly Weather History & Observations

Time (EST) Temp. Windchill Dew Point Humidity Pressure Visibility Wind Dir Wind Speed Gust Speed Precip Events Conditions
12:35 AM 28.4 °F 22.2 °F 26.6 °F 93% 30.07 in 4.0 mi Variable 5.8 mph - 0.00 in Rain Light Freezing Rain
12:43 AM 28.4 °F 23.3 °F 26.6 °F 93% 30.07 in 4.0 mi Variable 4.6 mph - 0.00 in Rain Light Freezing Rain
12:50 AM 28.4 °F 22.2 °F 26.6 °F 93% 30.07 in 4.0 mi Variable 5.8 mph - 0.00 in Rain Light Freezing Rain
1:01 AM 28.4 °F 22.2 °F 26.6 °F 93% 30.07 in 4.0 mi Variable 5.8 mph - 0.00 in Rain Light Freezing Rain
1:18 AM 28.4 °F 19.7 °F 26.6 °F 93% 30.07 in 7.0 mi NE 9.2 mph - 0.00 in Rain Light Freezing Rain
1:52 AM 28.0 °F 20.0 °F 26.1 °F 92% 30.10 in 7.0 mi NNE 8.1 mph - 0.00 in Rain Light Freezing Rain
1:59 AM 28.4 °F 22.2 °F 26.6 °F 93% 30.05 in 9.0 mi Variable 5.8 mph 24.2 mph 0.00 in   Overcast
2:09 AM 28.4 °F 21.2 °F 26.6 °F 93% 30.04 in 7.0 mi NNE 6.9 mph - 0.00 in   Overcast
2:20 AM 28.4 °F 19.7 °F 26.6 °F 93% 30.04 in 5.0 mi NNE 9.2 mph 18.4 mph 0.00 in   Overcast
2:52 AM 28.0 °F 20.8 °F 26.1 °F 92% 30.09 in 7.0 mi Variable 6.9 mph - 0.00 in   Overcast
3:52 AM 28.0 °F 19.3 °F 25.0 °F 88% 30.09 in 7.0 mi North 9.2 mph 17.3 mph 0.00 in   Overcast
4:28 AM 28.4 °F 19.7 °F 24.8 °F 86% 30.04 in 10.0 mi NNE 9.2 mph - N/A   Overcast
4:52 AM 27.0 °F 18.7 °F 25.0 °F 92% 30.09 in 7.0 mi NNE 8.1 mph 21.9 mph N/A   Overcast
5:42 AM 26.6 °F 16.8 °F 24.8 °F 93% 30.03 in 2.5 mi NNE 10.4 mph 19.6 mph 0.00 in Snow Light Snow
5:52 AM 27.0 °F 19.5 °F 24.1 °F 89% 30.08 in 2.0 mi Variable 6.9 mph - 0.00 in Snow Light Snow
6:14 AM 26.6 °F 19.1 °F 24.8 °F 93% 30.03 in 3.0 mi Variable 6.9 mph - 0.00 in Snow Light Snow
6:29 AM 26.6 °F 19.1 °F 24.8 °F 93% 30.04 in 1.8 mi Variable 6.9 mph 21.9 mph 0.00 in Snow Light Snow
6:32 AM 26.6 °F 21.2 °F 24.8 °F 93% 30.04 in 1.2 mi Variable 4.6 mph 21.9 mph 0.00 in Snow Light Snow
6:41 AM 26.6 °F 17.5 °F 24.8 °F 93% 30.04 in 1.0 mi North 9.2 mph 20.7 mph 0.00 in Snow Light Snow
6:52 AM 27.0 °F 18.0 °F 24.1 °F 89% 30.10 in 1.0 mi North 9.2 mph 16.1 mph 0.01 in Snow Light Snow
7:01 AM 26.6 °F 20.0 °F 24.8 °F 93% 30.05 in 1.2 mi Variable 5.8 mph - 0.00 in Snow Light Snow
7:08 AM 26.6 °F 17.5 °F 24.8 °F 93% 30.05 in 1.5 mi NNE 9.2 mph 18.4 mph 0.00 in Snow Light Snow
7:12 AM 26.6 °F 21.2 °F 24.8 °F 93% 30.05 in 1.2 mi Variable 4.6 mph 18.4 mph 0.00 in Snow Light Snow
7:14 AM 26.6 °F 21.2 °F 24.8 °F 93% 30.05 in 1.0 mi Variable 4.6 mph 18.4 mph 0.00 in Snow Light Snow
7:35 AM 26.6 °F 18.2 °F 24.8 °F 93% 30.05 in 0.8 mi North 8.1 mph - 0.00 in Snow Light Snow
7:42 AM 26.6 °F 18.2 °F 24.8 °F 93% 30.05 in 0.8 mi NNE 8.1 mph - 0.00 in Snow Light Snow
7:52 AM 27.0 °F 18.7 °F 24.1 °F 89% 30.11 in 0.8 mi NNE 8.1 mph 16.1 mph 0.01 in Snow Light Snow
7:54 AM 26.6 °F 19.1 °F 24.8 °F 93% 30.05 in 1.0 mi Variable 6.9 mph - 0.00 in Snow Light Snow
8:21 AM 26.6 °F 21.2 °F 24.8 °F 93% 30.05 in 0.8 mi Variable 4.6 mph - 0.00 in Snow Light Snow
8:41 AM 26.6 °F 18.2 °F 24.8 °F 93% 30.05 in 1.0 mi NNE 8.1 mph - 0.00 in Snow Light Snow
8:49 AM 28.4 °F 22.2 °F 24.8 °F 86% 30.05 in 1.2 mi Variable 5.8 mph - 0.00 in Snow Light Snow
8:52 AM 28.0 °F 21.7 °F 25.0 °F 88% 30.10 in 1.5 mi Variable 5.8 mph - 0.00 in Snow Light Snow
8:58 AM 28.4 °F 20.4 °F 24.8 °F 86% 30.05 in 1.2 mi NNE 8.1 mph - 0.00 in Snow Light Snow
9:09 AM 28.4 °F 20.4 °F 24.8 °F 86% 30.05 in 1.2 mi NNE 8.1 mph - 0.00 in Snow Light Snow
9:26 AM 28.4 °F 23.3 °F 24.8 °F 86% 30.05 in 1.0 mi Variable 4.6 mph 17.3 mph 0.00 in Snow Light Snow
9:45 AM 30.2 °F 21.9 °F 26.6 °F 86% 30.04 in 1.5 mi North 9.2 mph 19.6 mph 0.00 in Snow Light Snow
10:04 AM 30.2 °F 21.9 °F 26.6 °F 86% 30.04 in 1.5 mi NNE 9.2 mph 24.2 mph 0.00 in Snow Light Snow
10:17 AM 30.2 °F 20.2 °F 24.8 °F 80% 30.04 in 2.0 mi NNE 12.7 mph 20.7 mph 0.00 in Snow Light Snow
10:35 AM 30.2 °F 20.2 °F 24.8 °F 80% 30.03 in 3.0 mi NNE 12.7 mph 18.4 mph 0.00 in Snow Light Snow
10:42 AM 30.2 °F 23.4 °F 24.8 °F 80% 30.03 in 3.0 mi Variable 6.9 mph 19.6 mph 0.00 in Snow Light Snow
10:52 AM 30.0 °F 19.5 °F 24.1 °F 79% 30.09 in 4.0 mi NNE 13.8 mph 25.3 mph 0.00 in Snow Light Snow
11:52 AM 30.9 °F 22.2 °F 25.0 °F 79% 30.09 in 6.0 mi NNE 10.4 mph 21.9 mph 0.00 in Snow Light Snow
12:49 PM 30.2 °F 22.6 °F 24.8 °F 80% 30.03 in 2.0 mi North 8.1 mph 18.4 mph 0.00 in Snow Light Snow
12:52 PM 30.9 °F 22.2 °F 25.0 °F 79% 30.09 in 1.8 mi North 10.4 mph 17.3 mph 0.00 in Snow Light Snow
1:06 PM 30.2 °F 22.6 °F 26.6 °F 86% 30.03 in 1.2 mi North 8.1 mph 16.1 mph 0.00 in Snow Light Snow
1:13 PM 30.2 °F 22.6 °F 26.6 °F 86% 30.03 in 0.8 mi North 8.1 mph 17.3 mph 0.00 in Snow Light Snow
1:33 PM 30.2 °F 22.6 °F 26.6 °F 86% 30.02 in 1.2 mi North 8.1 mph 18.4 mph 0.01 in Snow Light Snow
1:52 PM 30.0 °F 24.1 °F 26.1 °F 85% 30.08 in 1.0 mi Variable 5.8 mph 19.6 mph 0.01 in Snow Light Snow
2:00 PM 30.2 °F 21.9 °F 26.6 °F 86% 30.03 in 1.2 mi North 9.2 mph 19.6 mph 0.00 in Snow Light Snow
2:08 PM 30.2 °F 21.9 °F 26.6 °F 86% 30.03 in 2.0 mi North 9.2 mph 18.4 mph 0.00 in Snow Light Snow
2:19 PM 30.2 °F 23.4 °F 26.6 °F 86% 30.03 in 4.0 mi Variable 6.9 mph 18.4 mph 0.00 in Snow Light Snow
2:49 PM 30.2 °F 24.3 °F 26.6 °F 86% 30.02 in 2.0 mi Variable 5.8 mph - 0.00 in Snow Light Snow
2:52 PM 30.9 °F 22.2 °F 27.0 °F 85% 30.08 in 1.8 mi North 10.4 mph - 0.00 in Snow Light Snow
3:03 PM 30.2 °F 24.3 °F 26.6 °F 86% 30.03 in 1.2 mi North 5.8 mph - 0.00 in Snow Light Snow
3:11 PM 30.2 °F 21.9 °F 26.6 °F 86% 30.03 in 1.8 mi North 9.2 mph - 0.00 in Snow Light Snow
3:16 PM 30.2 °F 22.6 °F 26.6 °F 86% 30.03 in 1.2 mi North 8.1 mph - 0.00 in Snow Light Snow
3:30 PM 30.2 °F 20.8 °F 26.6 °F 86% 30.03 in 1.0 mi North 11.5 mph 17.3 mph 0.00 in Snow Light Snow
3:40 PM 30.2 °F 21.3 °F 26.6 °F 86% 30.03 in 0.8 mi NNE 10.4 mph 21.9 mph 0.00 in Snow Light Snow
3:46 PM 30.2 °F 22.6 °F 26.6 °F 86% 30.03 in 1.0 mi North 8.1 mph 21.9 mph 0.00 in Snow Light Snow
3:47 PM 30.0 °F 22.4 °F 26.1 °F 85% 30.09 in 1.0 mi NNE 8.1 mph 21.9 mph 0.00 in Snow Light Snow
4:15 PM 28.4 °F 23.3 °F 26.6 °F 93% 30.04 in 0.8 mi Variable 4.6 mph - 0.01 in Snow Light Snow
4:45 PM 28.4 °F 23.3 °F 26.6 °F 93% 30.03 in 0.8 mi Variable 4.6 mph - 0.01 in Snow Light Snow
4:52 PM 28.9 °F 22.8 °F 27.0 °F 92% 30.09 in 0.5 mi Variable 5.8 mph - 0.02 in Fog , Snow Snow
5:02 PM 28.4 °F 21.2 °F 26.6 °F 93% 30.04 in 0.5 mi Variable 6.9 mph - 0.00 in Fog , Snow Snow
5:52 PM 28.9 °F 21.9 °F 27.0 °F 92% 30.10 in 1.0 mi North 6.9 mph 16.1 mph 0.03 in Snow Light Snow
6:02 PM 28.4 °F 22.2 °F 26.6 °F 93% 30.04 in 1.2 mi Variable 5.8 mph - 0.01 in Snow Light Snow
6:06 PM 28.4 °F 22.2 °F 26.6 °F 93% 30.04 in 1.5 mi Variable 5.8 mph - 0.01 in Snow Light Snow
6:18 PM 28.4 °F 21.2 °F 26.6 °F 93% 30.04 in 1.0 mi Variable 6.9 mph - 0.01 in Snow Light Snow
6:52 PM 28.9 °F 22.8 °F 28.0 °F 96% 30.10 in 1.0 mi Variable 5.8 mph - 0.03 in Snow Light Snow
7:03 PM 28.4 °F 23.3 °F 28.4 °F 100% 30.04 in 1.0 mi Variable 4.6 mph - 0.01 in Snow Light Snow
7:12 PM 28.4 °F 23.3 °F 28.4 °F 100% 30.04 in 1.0 mi Variable 4.6 mph - 0.01 in Snow Light Snow
7:17 PM 28.4 °F 22.2 °F 28.4 °F 100% 30.04 in 0.8 mi Variable 5.8 mph - 0.02 in Snow Light Snow
7:34 PM 28.4 °F 23.3 °F 28.4 °F 100% 30.03 in 1.0 mi Variable 4.6 mph - 0.03 in Snow Light Snow
7:44 PM 28.4 °F 23.3 °F 28.4 °F 100% 30.03 in 0.8 mi Variable 4.6 mph - 0.03 in Snow Light Snow
7:52 PM 28.9 °F 22.8 °F 28.0 °F 96% 30.09 in 0.8 mi North 5.8 mph - 0.04 in Snow Light Snow
7:59 PM 28.4 °F 23.3 °F 28.4 °F 100% 30.03 in 1.0 mi Variable 4.6 mph - 0.00 in Snow Light Snow
8:17 PM 28.4 °F - 28.4 °F 100% 30.03 in 1.0 mi Calm Calm - 0.02 in Snow Light Snow
8:33 PM 28.4 °F 24.6 °F 28.4 °F 100% 30.03 in 1.2 mi Variable 3.5 mph - 0.03 in Snow Light Snow
8:40 PM 28.4 °F 21.2 °F 28.4 °F 100% 30.03 in 1.5 mi Variable 6.9 mph - 0.03 in Snow Light Snow
8:45 PM 28.4 °F 22.2 °F 28.4 °F 100% 30.03 in 1.0 mi Variable 5.8 mph - 0.03 in Snow Light Snow
8:52 PM 28.9 °F 23.9 °F 28.0 °F 96% 30.09 in 1.0 mi Variable 4.6 mph - 0.03 in Snow Light Snow
9:08 PM 28.4 °F 21.2 °F 28.4 °F 100% 30.03 in 0.8 mi North 6.9 mph - 0.02 in Snow Light Snow
9:52 PM 28.9 °F 22.8 °F 28.0 °F 96% 30.07 in 0.8 mi Variable 5.8 mph - 0.06 in Snow Light Snow
10:52 PM 28.9 °F 21.1 °F 27.0 °F 92% 30.06 in 0.8 mi North 8.1 mph - 0.03 in Snow Light Snow
11:02 PM 28.4 °F 22.2 °F 26.6 °F 93% 30.00 in 1.0 mi Variable 5.8 mph - 0.01 in Snow Light Snow
11:20 PM 28.4 °F 24.6 °F 26.6 °F 93% 30.00 in 1.5 mi Variable 3.5 mph - 0.02 in Snow Light Snow
11:44 PM 28.4 °F 19.1 °F 26.6 °F 93% 30.00 in 1.2 mi North 10.4 mph - 0.03 in Snow Light Snow
11:52 PM 28.0 °F 21.7 °F 27.0 °F 96% 30.05 in 1.2 mi North 5.8 mph - 0.03 in Snow Light Snow